sensor_id;sensor_type;location;lat;lon;timestamp;pressure;altitude;pressure_sealevel;temperature;humidity
3654;BME280;70277;54.302;10.064;2024-02-21T00:01:22;101375.47;;;9.74;87.50
3654;BME280;70277;54.302;10.064;2024-02-21T00:03:49;101371.97;;;9.86;87.25
3654;BME280;70277;54.302;10.064;2024-02-21T00:06:16;101369.84;;;9.88;87.28
3654;BME280;70277;54.302;10.064;2024-02-21T00:08:42;101372.59;;;9.69;87.52
3654;BME280;70277;54.302;10.064;2024-02-21T00:11:09;101358.13;;;9.64;88.08
3654;BME280;70277;54.302;10.064;2024-02-21T00:13:36;101355.34;;;9.70;87.57
3654;BME280;70277;54.302;10.064;2024-02-21T00:16:03;101354.03;;;9.73;87.26
3654;BME280;70277;54.302;10.064;2024-02-21T00:18:29;101351.06;;;9.93;86.64
3654;BME280;70277;54.302;10.064;2024-02-21T00:20:56;101348.78;;;10.08;86.01
3654;BME280;70277;54.302;10.064;2024-02-21T00:23:22;101346.75;;;9.92;86.56
3654;BME280;70277;54.302;10.064;2024-02-21T00:25:49;101335.16;;;10.15;85.73
3654;BME280;70277;54.302;10.064;2024-02-21T00:28:16;101329.69;;;9.91;86.41
3654;BME280;70277;54.302;10.064;2024-02-21T00:30:43;101320.09;;;10.07;86.23
3654;BME280;70277;54.302;10.064;2024-02-21T00:33:09;101315.69;;;9.83;86.92
3654;BME280;70277;54.302;10.064;2024-02-21T00:35:36;101323.63;;;10.08;86.04
3654;BME280;70277;54.302;10.064;2024-02-21T00:38:03;101311.22;;;9.58;87.48
3654;BME280;70277;54.302;10.064;2024-02-21T00:40:30;101307.41;;;9.77;87.33
3654;BME280;70277;54.302;10.064;2024-02-21T00:42:57;101307.28;;;9.72;87.26
3654;BME280;70277;54.302;10.064;2024-02-21T00:45:23;101299.84;;;9.98;86.06
3654;BME280;70277;54.302;10.064;2024-02-21T00:47:50;101286.97;;;9.82;86.78
3654;BME280;70277;54.302;10.064;2024-02-21T00:50:16;101291.28;;;10.01;86.29
3654;BME280;70277;54.302;10.064;2024-02-21T00:52:43;101278.53;;;9.90;87.14
3654;BME280;70277;54.302;10.064;2024-02-21T00:55:11;101290.34;;;10.07;87.62
3654;BME280;70277;54.302;10.064;2024-02-21T00:57:37;101276.16;;;9.82;86.97
3654;BME280;70277;54.302;10.064;2024-02-21T01:00:05;101275.63;;;9.91;88.56
3654;BME280;70277;54.302;10.064;2024-02-21T01:02:31;101278.50;;;9.78;88.29
3654;BME280;70277;54.302;10.064;2024-02-21T01:04:58;101277.03;;;9.94;87.51
3654;BME280;70277;54.302;10.064;2024-02-21T01:07:25;101273.28;;;9.95;88.51
3654;BME280;70277;54.302;10.064;2024-02-21T01:09:51;101266.97;;;9.71;89.20
3654;BME280;70277;54.302;10.064;2024-02-21T01:12:19;101263.34;;;9.77;89.82
3654;BME280;70277;54.302;10.064;2024-02-21T01:14:45;101264.03;;;9.72;90.03
3654;BME280;70277;54.302;10.064;2024-02-21T01:17:15;101251.84;;;9.82;89.80
3654;BME280;70277;54.302;10.064;2024-02-21T01:19:42;101251.63;;;9.83;90.30
3654;BME280;70277;54.302;10.064;2024-02-21T01:22:09;101242.34;;;9.49;90.81
3654;BME280;70277;54.302;10.064;2024-02-21T01:24:35;101238.28;;;9.70;90.84
3654;BME280;70277;54.302;10.064;2024-02-21T01:27:02;101242.00;;;9.99;89.99
3654;BME280;70277;54.302;10.064;2024-02-21T01:29:29;101226.47;;;9.83;89.56
3654;BME280;70277;54.302;10.064;2024-02-21T01:31:55;101224.34;;;9.85;90.26
3654;BME280;70277;54.302;10.064;2024-02-21T01:34:22;101208.53;;;9.58;90.98
3654;BME280;70277;54.302;10.064;2024-02-21T01:36:49;101211.25;;;9.70;90.80
3654;BME280;70277;54.302;10.064;2024-02-21T01:39:15;101214.34;;;9.73;91.13
3654;BME280;70277;54.302;10.064;2024-02-21T01:41:42;101199.16;;;9.72;91.00
3654;BME280;70277;54.302;10.064;2024-02-21T01:44:08;101190.53;;;9.94;90.12
3654;BME280;70277;54.302;10.064;2024-02-21T01:46:35;101158.59;;;9.61;90.57
3654;BME280;70277;54.302;10.064;2024-02-21T01:49:02;101151.09;;;9.63;91.15
3654;BME280;70277;54.302;10.064;2024-02-21T01:51:30;101180.56;;;9.64;91.07
3654;BME280;70277;54.302;10.064;2024-02-21T01:53:57;101157.78;;;9.60;91.06
3654;BME280;70277;54.302;10.064;2024-02-21T01:56:24;101156.63;;;9.56;92.07
3654;BME280;70277;54.302;10.064;2024-02-21T01:58:51;101170.13;;;9.56;92.06
3654;BME280;70277;54.302;10.064;2024-02-21T02:01:18;101153.81;;;9.63;91.55
3654;BME280;70277;54.302;10.064;2024-02-21T02:03:48;101149.53;;;9.55;91.00
3654;BME280;70277;54.302;10.064;2024-02-21T02:06:15;101136.63;;;9.57;90.98
3654;BME280;70277;54.302;10.064;2024-02-21T02:08:42;101150.50;;;9.72;91.41
3654;BME280;70277;54.302;10.064;2024-02-21T02:11:09;101140.63;;;9.66;91.41
3654;BME280;70277;54.302;10.064;2024-02-21T02:13:36;101151.94;;;9.87;90.00
3654;BME280;70277;54.302;10.064;2024-02-21T02:16:03;101127.00;;;9.61;91.05
3654;BME280;70277;54.302;10.064;2024-02-21T02:18:30;101121.59;;;9.61;91.48
3654;BME280;70277;54.302;10.064;2024-02-21T02:20:57;101132.66;;;9.71;91.18
3654;BME280;70277;54.302;10.064;2024-02-21T02:23:30;101124.91;;;9.87;90.29
3654;BME280;70277;54.302;10.064;2024-02-21T02:25:58;101126.53;;;9.64;90.99
3654;BME280;70277;54.302;10.064;2024-02-21T02:28:24;101117.25;;;9.60;90.53
3654;BME280;70277;54.302;10.064;2024-02-21T02:30:51;101125.50;;;9.77;90.13
3654;BME280;70277;54.302;10.064;2024-02-21T02:33:17;101103.75;;;9.95;89.83
3654;BME280;70277;54.302;10.064;2024-02-21T02:35:45;101111.66;;;9.73;90.68
3654;BME280;70277;54.302;10.064;2024-02-21T02:38:12;101123.16;;;9.80;91.14
3654;BME280;70277;54.302;10.064;2024-02-21T02:40:40;101107.53;;;9.83;90.92
3654;BME280;70277;54.302;10.064;2024-02-21T02:43:07;101123.13;;;9.69;91.37
3654;BME280;70277;54.302;10.064;2024-02-21T02:45:33;101109.16;;;9.84;90.98
3654;BME280;70277;54.302;10.064;2024-02-21T02:48:01;101104.69;;;9.77;90.98
3654;BME280;70277;54.302;10.064;2024-02-21T02:50:28;101108.09;;;9.73;92.15
3654;BME280;70277;54.302;10.064;2024-02-21T02:52:55;101094.34;;;9.74;91.17
3654;BME280;70277;54.302;10.064;2024-02-21T02:55:22;101095.28;;;9.68;92.03
3654;BME280;70277;54.302;10.064;2024-02-21T02:57:49;101107.84;;;9.51;92.80
3654;BME280;70277;54.302;10.064;2024-02-21T03:00:15;101101.75;;;9.55;91.76
3654;BME280;70277;54.302;10.064;2024-02-21T03:02:44;101108.34;;;9.83;92.28
3654;BME280;70277;54.302;10.064;2024-02-21T03:05:22;101104.91;;;9.64;91.59
3654;BME280;70277;54.302;10.064;2024-02-21T03:07:49;101111.47;;;9.45;92.51
3654;BME280;70277;54.302;10.064;2024-02-21T03:10:16;101111.50;;;9.68;92.20
3654;BME280;70277;54.302;10.064;2024-02-21T03:12:44;101116.69;;;9.82;92.24
3654;BME280;70277;54.302;10.064;2024-02-21T03:15:12;101105.03;;;9.93;91.19
3654;BME280;70277;54.302;10.064;2024-02-21T03:17:39;101106.22;;;9.62;92.65
3654;BME280;70277;54.302;10.064;2024-02-21T03:20:06;101104.44;;;9.44;93.23
3654;BME280;70277;54.302;10.064;2024-02-21T03:22:38;101111.38;;;9.63;92.37
3654;BME280;70277;54.302;10.064;2024-02-21T03:25:06;101114.56;;;9.60;92.24
3654;BME280;70277;54.302;10.064;2024-02-21T03:27:33;101109.28;;;9.77;91.36
3654;BME280;70277;54.302;10.064;2024-02-21T03:29:59;101100.56;;;9.63;91.79
3654;BME280;70277;54.302;10.064;2024-02-21T03:32:26;101106.31;;;9.55;92.29
3654;BME280;70277;54.302;10.064;2024-02-21T03:34:54;101105.72;;;9.41;92.61
3654;BME280;70277;54.302;10.064;2024-02-21T03:37:21;101106.19;;;9.38;92.84
3654;BME280;70277;54.302;10.064;2024-02-21T03:39:48;101111.84;;;9.60;91.96
3654;BME280;70277;54.302;10.064;2024-02-21T03:42:14;101111.16;;;9.53;92.04
3654;BME280;70277;54.302;10.064;2024-02-21T03:44:41;101116.78;;;9.51;92.42
3654;BME280;70277;54.302;10.064;2024-02-21T03:47:07;101110.31;;;9.41;92.34
3654;BME280;70277;54.302;10.064;2024-02-21T03:49:37;101099.22;;;9.30;92.20
3654;BME280;70277;54.302;10.064;2024-02-21T03:52:04;101127.84;;;9.20;91.54
3654;BME280;70277;54.302;10.064;2024-02-21T03:54:30;101142.81;;;9.34;89.49
3654;BME280;70277;54.302;10.064;2024-02-21T03:56:57;101123.03;;;9.22;90.07
3654;BME280;70277;54.302;10.064;2024-02-21T03:59:23;101139.13;;;9.59;89.26
3654;BME280;70277;54.302;10.064;2024-02-21T04:01:53;101138.06;;;9.18;89.41
3654;BME280;70277;54.302;10.064;2024-02-21T04:04:20;101125.59;;;9.47;89.39
3654;BME280;70277;54.302;10.064;2024-02-21T04:06:50;101118.28;;;9.36;89.62
3654;BME280;70277;54.302;10.064;2024-02-21T04:09:17;101117.00;;;9.08;90.44
3654;BME280;70277;54.302;10.064;2024-02-21T04:11:44;101120.25;;;9.28;89.49
3654;BME280;70277;54.302;10.064;2024-02-21T04:14:11;101124.69;;;9.23;89.61
3654;BME280;70277;54.302;10.064;2024-02-21T04:16:38;101135.56;;;9.58;88.78
3654;BME280;70277;54.302;10.064;2024-02-21T04:19:06;101129.09;;;9.36;89.29
3654;BME280;70277;54.302;10.064;2024-02-21T04:21:33;101124.78;;;9.16;89.54
3654;BME280;70277;54.302;10.064;2024-02-21T04:23:59;101130.06;;;9.11;89.49
3654;BME280;70277;54.302;10.064;2024-02-21T04:26:26;101138.81;;;8.95;89.63
3654;BME280;70277;54.302;10.064;2024-02-21T04:28:52;101132.25;;;9.32;89.43
3654;BME280;70277;54.302;10.064;2024-02-21T04:31:19;101127.84;;;9.20;88.35
3654;BME280;70277;54.302;10.064;2024-02-21T04:33:46;101145.91;;;9.38;88.90
3654;BME280;70277;54.302;10.064;2024-02-21T04:36:12;101139.06;;;9.05;89.17
3654;BME280;70277;54.302;10.064;2024-02-21T04:38:39;101135.34;;;9.60;88.45
3654;BME280;70277;54.302;10.064;2024-02-21T04:41:07;101134.53;;;9.59;87.61
3654;BME280;70277;54.302;10.064;2024-02-21T04:43:34;101136.91;;;9.25;88.13
3654;BME280;70277;54.302;10.064;2024-02-21T04:46:01;101140.41;;;9.56;87.38
3654;BME280;70277;54.302;10.064;2024-02-21T04:48:28;101126.06;;;9.44;87.58
3654;BME280;70277;54.302;10.064;2024-02-21T04:50:54;101128.56;;;9.15;87.85
3654;BME280;70277;54.302;10.064;2024-02-21T04:53:21;101133.81;;;9.52;87.75
3654;BME280;70277;54.302;10.064;2024-02-21T04:55:47;101141.91;;;9.10;88.24
3654;BME280;70277;54.302;10.064;2024-02-21T04:58:14;101140.06;;;9.52;87.19
3654;BME280;70277;54.302;10.064;2024-02-21T05:00:41;101126.97;;;9.38;87.47
3654;BME280;70277;54.302;10.064;2024-02-21T05:03:07;101138.59;;;9.38;87.97
3654;BME280;70277;54.302;10.064;2024-02-21T05:05:34;101129.09;;;9.36;87.40
3654;BME280;70277;54.302;10.064;2024-02-21T05:08:03;101127.16;;;9.24;87.78
3654;BME280;70277;54.302;10.064;2024-02-21T05:10:30;101128.69;;;9.20;88.18
3654;BME280;70277;54.302;10.064;2024-02-21T05:12:57;101124.44;;;9.13;88.28
3654;BME280;70277;54.302;10.064;2024-02-21T05:15:24;101121.97;;;9.23;87.94
3654;BME280;70277;54.302;10.064;2024-02-21T05:17:50;101126.19;;;9.61;87.40
3654;BME280;70277;54.302;10.064;2024-02-21T05:20:17;101123.91;;;9.46;87.66
3654;BME280;70277;54.302;10.064;2024-02-21T05:22:44;101127.69;;;9.45;87.14
3654;BME280;70277;54.302;10.064;2024-02-21T05:25:10;101115.81;;;9.46;87.48
3654;BME280;70277;54.302;10.064;2024-02-21T05:27:37;101117.38;;;8.81;88.95
3654;BME280;70277;54.302;10.064;2024-02-21T05:30:05;101113.28;;;9.09;88.13
3654;BME280;70277;54.302;10.064;2024-02-21T05:32:32;101110.28;;;8.99;88.31
3654;BME280;70277;54.302;10.064;2024-02-21T05:34:59;101109.94;;;8.95;88.26
3654;BME280;70277;54.302;10.064;2024-02-21T05:37:26;101111.59;;;9.08;87.91
3654;BME280;70277;54.302;10.064;2024-02-21T05:39:53;101112.25;;;9.22;87.00
3654;BME280;70277;54.302;10.064;2024-02-21T05:42:19;101110.78;;;9.07;87.32
3654;BME280;70277;54.302;10.064;2024-02-21T05:44:46;101112.81;;;9.12;87.63
3654;BME280;70277;54.302;10.064;2024-02-21T05:47:13;101116.38;;;9.24;87.27
3654;BME280;70277;54.302;10.064;2024-02-21T05:49:41;101108.03;;;9.14;87.47
3654;BME280;70277;54.302;10.064;2024-02-21T05:52:08;101117.22;;;9.37;86.72
3654;BME280;70277;54.302;10.064;2024-02-21T05:54:37;101119.78;;;9.31;86.41
3654;BME280;70277;54.302;10.064;2024-02-21T05:57:05;101120.38;;;9.33;85.05
3654;BME280;70277;54.302;10.064;2024-02-21T05:59:31;101123.28;;;9.20;86.10
3654;BME280;70277;54.302;10.064;2024-02-21T06:01:58;101110.72;;;9.14;85.75
3654;BME280;70277;54.302;10.064;2024-02-21T06:04:25;101121.34;;;9.51;85.09
3654;BME280;70277;54.302;10.064;2024-02-21T06:06:51;101125.91;;;8.97;85.34
3654;BME280;70277;54.302;10.064;2024-02-21T06:09:18;101119.09;;;9.36;85.41
3654;BME280;70277;54.302;10.064;2024-02-21T06:11:44;101125.81;;;9.03;85.72
3654;BME280;70277;54.302;10.064;2024-02-21T06:14:13;101127.09;;;9.01;85.82
3654;BME280;70277;54.302;10.064;2024-02-21T06:16:39;101124.13;;;9.21;84.72
3654;BME280;70277;54.302;10.064;2024-02-21T06:19:06;101131.47;;;9.14;84.92
3654;BME280;70277;54.302;10.064;2024-02-21T06:21:36;101135.50;;;8.93;84.86
3654;BME280;70277;54.302;10.064;2024-02-21T06:24:03;101141.94;;;9.22;84.00
3654;BME280;70277;54.302;10.064;2024-02-21T06:26:30;101156.19;;;8.99;84.30
3654;BME280;70277;54.302;10.064;2024-02-21T06:28:56;101149.13;;;9.28;84.15
3654;BME280;70277;54.302;10.064;2024-02-21T06:31:24;101148.69;;;9.01;83.79
3654;BME280;70277;54.302;10.064;2024-02-21T06:33:50;101149.78;;;9.11;83.43
3654;BME280;70277;54.302;10.064;2024-02-21T06:36:17;101149.75;;;9.42;82.88
3654;BME280;70277;54.302;10.064;2024-02-21T06:38:44;101129.22;;;9.41;82.35
3654;BME280;70277;54.302;10.064;2024-02-21T06:41:17;101132.28;;;9.44;82.37
3654;BME280;70277;54.302;10.064;2024-02-21T06:43:46;101134.72;;;9.04;82.37
3654;BME280;70277;54.302;10.064;2024-02-21T06:46:28;101126.63;;;9.04;82.01
3654;BME280;70277;54.302;10.064;2024-02-21T06:48:56;101133.41;;;8.95;83.15
3654;BME280;70277;54.302;10.064;2024-02-21T06:51:24;101132.28;;;9.02;82.08
3654;BME280;70277;54.302;10.064;2024-02-21T06:53:51;101127.19;;;8.94;82.60
3654;BME280;70277;54.302;10.064;2024-02-21T06:56:18;101129.38;;;9.16;82.32
3654;BME280;70277;54.302;10.064;2024-02-21T06:58:45;101129.88;;;8.94;82.55
3654;BME280;70277;54.302;10.064;2024-02-21T07:01:12;101126.03;;;8.53;83.38
3654;BME280;70277;54.302;10.064;2024-02-21T07:03:38;101122.69;;;8.58;83.75
3654;BME280;70277;54.302;10.064;2024-02-21T07:06:05;101131.81;;;8.57;83.47
3654;BME280;70277;54.302;10.064;2024-02-21T07:08:31;101131.22;;;8.55;84.30
3654;BME280;70277;54.302;10.064;2024-02-21T07:10:58;101130.31;;;8.42;84.27
3654;BME280;70277;54.302;10.064;2024-02-21T07:13:25;101143.97;;;8.48;83.95
3654;BME280;70277;54.302;10.064;2024-02-21T07:15:51;101137.63;;;8.72;83.43
3654;BME280;70277;54.302;10.064;2024-02-21T07:18:18;101134.06;;;8.90;83.34
3654;BME280;70277;54.302;10.064;2024-02-21T07:20:45;101124.53;;;9.06;82.63
3654;BME280;70277;54.302;10.064;2024-02-21T07:23:11;101128.31;;;9.17;82.75
3654;BME280;70277;54.302;10.064;2024-02-21T07:25:38;101122.16;;;8.98;82.24
3654;BME280;70277;54.302;10.064;2024-02-21T07:28:06;101127.16;;;8.64;82.98
3654;BME280;70277;54.302;10.064;2024-02-21T07:30:33;101126.06;;;9.14;81.96
3654;BME280;70277;54.302;10.064;2024-02-21T07:32:59;101127.94;;;8.53;82.70
3654;BME280;70277;54.302;10.064;2024-02-21T07:35:26;101134.88;;;8.42;83.51
3654;BME280;70277;54.302;10.064;2024-02-21T07:37:52;101132.81;;;8.44;83.83
3654;BME280;70277;54.302;10.064;2024-02-21T07:40:19;101158.34;;;8.60;83.66
3654;BME280;70277;54.302;10.064;2024-02-21T07:42:46;101167.84;;;8.62;84.02
3654;BME280;70277;54.302;10.064;2024-02-21T07:45:17;101162.53;;;8.56;83.57
3654;BME280;70277;54.302;10.064;2024-02-21T07:47:45;101158.69;;;8.63;83.97
3654;BME280;70277;54.302;10.064;2024-02-21T07:50:11;101142.66;;;8.69;83.88
3654;BME280;70277;54.302;10.064;2024-02-21T07:52:38;101155.34;;;8.68;83.32
3654;BME280;70277;54.302;10.064;2024-02-21T07:55:05;101157.91;;;8.93;82.65
3654;BME280;70277;54.302;10.064;2024-02-21T07:57:32;101155.03;;;8.39;84.26
3654;BME280;70277;54.302;10.064;2024-02-21T07:59:58;101150.06;;;8.92;82.81
3654;BME280;70277;54.302;10.064;2024-02-21T08:02:25;101148.88;;;8.87;82.15
3654;BME280;70277;54.302;10.064;2024-02-21T08:04:51;101146.84;;;9.13;82.13
3654;BME280;70277;54.302;10.064;2024-02-21T08:07:18;101144.16;;;9.13;81.55
3654;BME280;70277;54.302;10.064;2024-02-21T08:09:44;101143.13;;;9.79;80.23
3654;BME280;70277;54.302;10.064;2024-02-21T08:12:11;101156.03;;;9.12;80.67
3654;BME280;70277;54.302;10.064;2024-02-21T08:14:37;101160.22;;;9.38;80.08
3654;BME280;70277;54.302;10.064;2024-02-21T08:17:04;101154.72;;;8.84;81.65
3654;BME280;70277;54.302;10.064;2024-02-21T08:19:31;101157.66;;;9.13;81.17
3654;BME280;70277;54.302;10.064;2024-02-21T08:21:57;101155.47;;;8.92;80.79
3654;BME280;70277;54.302;10.064;2024-02-21T08:24:24;101165.53;;;9.15;80.89
3654;BME280;70277;54.302;10.064;2024-02-21T08:26:51;101154.53;;;8.98;80.47
3654;BME280;70277;54.302;10.064;2024-02-21T08:29:17;101151.44;;;8.82;81.96
3654;BME280;70277;54.302;10.064;2024-02-21T08:31:44;101141.47;;;9.67;80.69
3654;BME280;70277;54.302;10.064;2024-02-21T08:34:10;101153.56;;;9.88;80.23
3654;BME280;70277;54.302;10.064;2024-02-21T08:36:37;101135.59;;;9.16;79.96
3654;BME280;70277;54.302;10.064;2024-02-21T08:39:04;101136.59;;;9.33;79.17
3654;BME280;70277;54.302;10.064;2024-02-21T08:41:32;101150.13;;;9.45;79.71
3654;BME280;70277;54.302;10.064;2024-02-21T08:44:17;101149.06;;;9.58;78.83
3654;BME280;70277;54.302;10.064;2024-02-21T08:46:44;101137.44;;;9.46;78.48
3654;BME280;70277;54.302;10.064;2024-02-21T08:49:10;101129.19;;;9.29;78.52
3654;BME280;70277;54.302;10.064;2024-02-21T08:51:37;101135.97;;;10.20;76.94
3654;BME280;70277;54.302;10.064;2024-02-21T08:54:04;101134.31;;;10.19;75.43
3654;BME280;70277;54.302;10.064;2024-02-21T08:56:31;101134.19;;;10.38;75.99
3654;BME280;70277;54.302;10.064;2024-02-21T08:58:58;101136.22;;;10.31;75.37
3654;BME280;70277;54.302;10.064;2024-02-21T09:01:26;101141.81;;;10.41;75.44
3654;BME280;70277;54.302;10.064;2024-02-21T09:03:53;101141.59;;;10.07;74.77
3654;BME280;70277;54.302;10.064;2024-02-21T09:06:20;101137.75;;;10.27;74.98
3654;BME280;70277;54.302;10.064;2024-02-21T09:08:47;101138.53;;;9.68;73.47
3654;BME280;70277;54.302;10.064;2024-02-21T09:11:14;101139.00;;;10.24;74.42
3654;BME280;70277;54.302;10.064;2024-02-21T09:13:41;101144.72;;;10.75;74.31
3654;BME280;70277;54.302;10.064;2024-02-21T09:16:07;101139.84;;;10.36;74.18
3654;BME280;70277;54.302;10.064;2024-02-21T09:18:35;101142.75;;;10.46;73.55
3654;BME280;70277;54.302;10.064;2024-02-21T09:21:02;101138.69;;;10.20;73.33
3654;BME280;70277;54.302;10.064;2024-02-21T09:23:28;101142.88;;;10.16;73.13
3654;BME280;70277;54.302;10.064;2024-02-21T09:25:55;101139.25;;;10.22;74.02
3654;BME280;70277;54.302;10.064;2024-02-21T09:28:22;101138.34;;;11.09;73.06
3654;BME280;70277;54.302;10.064;2024-02-21T09:30:49;101131.09;;;10.98;70.47
3654;BME280;70277;54.302;10.064;2024-02-21T09:33:15;101132.56;;;11.06;70.03
3654;BME280;70277;54.302;10.064;2024-02-21T09:35:57;101125.91;;;11.76;68.69
3654;BME280;70277;54.302;10.064;2024-02-21T09:38:24;101129.13;;;11.10;68.77
3654;BME280;70277;54.302;10.064;2024-02-21T09:41:17;101142.97;;;10.68;70.85
3654;BME280;70277;54.302;10.064;2024-02-21T09:43:51;101127.00;;;10.84;70.54
3654;BME280;70277;54.302;10.064;2024-02-21T09:46:25;101125.28;;;10.78;70.67
3654;BME280;70277;54.302;10.064;2024-02-21T09:51:36;101118.88;;;11.12;70.38
3654;BME280;70277;54.302;10.064;2024-02-21T09:54:04;101116.06;;;11.70;68.65
3654;BME280;70277;54.302;10.064;2024-02-21T09:56:41;101120.75;;;11.91;66.59
3654;BME280;70277;54.302;10.064;2024-02-21T09:59:08;101117.78;;;11.76;67.41
3654;BME280;70277;54.302;10.064;2024-02-21T10:01:36;101112.84;;;12.50;65.83
3654;BME280;70277;54.302;10.064;2024-02-21T10:04:03;101115.16;;;13.08;64.32
3654;BME280;70277;54.302;10.064;2024-02-21T10:06:32;101114.63;;;12.84;64.15
3654;BME280;70277;54.302;10.064;2024-02-21T10:08:59;101109.44;;;12.82;63.72
3654;BME280;70277;54.302;10.064;2024-02-21T10:11:26;101113.97;;;12.98;64.53
3654;BME280;70277;54.302;10.064;2024-02-21T10:14:05;101111.22;;;13.53;62.42
3654;BME280;70277;54.302;10.064;2024-02-21T10:16:33;101104.19;;;13.94;62.00
3654;BME280;70277;54.302;10.064;2024-02-21T10:19:00;101111.91;;;14.65;60.03
3654;BME280;70277;54.302;10.064;2024-02-21T10:21:27;101110.03;;;14.18;60.11
3654;BME280;70277;54.302;10.064;2024-02-21T10:23:53;101108.50;;;14.43;59.38
3654;BME280;70277;54.302;10.064;2024-02-21T10:26:21;101103.84;;;13.48;62.75
3654;BME280;70277;54.302;10.064;2024-02-21T10:28:47;101096.19;;;13.40;63.65
3654;BME280;70277;54.302;10.064;2024-02-21T10:31:22;101106.44;;;13.33;63.32
3654;BME280;70277;54.302;10.064;2024-02-21T10:36:23;101102.44;;;13.40;64.44
3654;BME280;70277;54.302;10.064;2024-02-21T10:38:51;101103.28;;;13.19;65.05
3654;BME280;70277;54.302;10.064;2024-02-21T10:41:20;101104.44;;;12.74;65.84
3654;BME280;70277;54.302;10.064;2024-02-21T10:43:52;101098.66;;;11.66;67.24
3654;BME280;70277;54.302;10.064;2024-02-21T10:46:23;101092.16;;;11.33;68.10
3654;BME280;70277;54.302;10.064;2024-02-21T10:49:04;101088.44;;;11.73;69.26
3654;BME280;70277;54.302;10.064;2024-02-21T10:51:34;101087.94;;;11.76;68.59
3654;BME280;70277;54.302;10.064;2024-02-21T10:56:33;101082.16;;;12.06;68.00
3654;BME280;70277;54.302;10.064;2024-02-21T10:59:05;101085.34;;;12.42;67.66
3654;BME280;70277;54.302;10.064;2024-02-21T11:01:32;101066.66;;;12.23;66.38
3654;BME280;70277;54.302;10.064;2024-02-21T11:04:06;101067.59;;;12.56;67.10
3654;BME280;70277;54.302;10.064;2024-02-21T11:06:38;101058.91;;;12.32;66.10
3654;BME280;70277;54.302;10.064;2024-02-21T11:09:07;101057.97;;;12.97;66.80
3654;BME280;70277;54.302;10.064;2024-02-21T11:11:39;101057.47;;;13.01;66.33
3654;BME280;70277;54.302;10.064;2024-02-21T11:14:08;101052.47;;;12.87;65.64
3654;BME280;70277;54.302;10.064;2024-02-21T11:16:40;101053.59;;;12.42;66.87
3654;BME280;70277;54.302;10.064;2024-02-21T11:19:08;101051.88;;;12.14;68.64
3654;BME280;70277;54.302;10.064;2024-02-21T11:21:37;101057.25;;;12.31;68.72
3654;BME280;70277;54.302;10.064;2024-02-21T11:24:04;101047.59;;;11.79;68.33
3654;BME280;70277;54.302;10.064;2024-02-21T11:26:31;101041.53;;;11.89;69.14
3654;BME280;70277;54.302;10.064;2024-02-21T11:29:00;101025.03;;;12.13;69.31
3654;BME280;70277;54.302;10.064;2024-02-21T11:31:41;101035.91;;;12.18;68.91
3654;BME280;70277;54.302;10.064;2024-02-21T11:34:09;101032.94;;;11.97;69.19
3654;BME280;70277;54.302;10.064;2024-02-21T11:36:39;101027.75;;;12.13;69.13
3654;BME280;70277;54.302;10.064;2024-02-21T11:39:12;101008.19;;;12.11;70.28
3654;BME280;70277;54.302;10.064;2024-02-21T11:41:39;101009.38;;;11.81;70.70
3654;BME280;70277;54.302;10.064;2024-02-21T11:44:05;101014.66;;;12.10;70.66
3654;BME280;70277;54.302;10.064;2024-02-21T11:46:32;101004.56;;;12.05;70.47
3654;BME280;70277;54.302;10.064;2024-02-21T11:48:58;101012.22;;;11.86;70.65
3654;BME280;70277;54.302;10.064;2024-02-21T11:51:28;101005.31;;;12.00;70.28
3654;BME280;70277;54.302;10.064;2024-02-21T11:53:54;101003.25;;;12.07;70.50
3654;BME280;70277;54.302;10.064;2024-02-21T11:56:27;101005.69;;;12.31;70.56
3654;BME280;70277;54.302;10.064;2024-02-21T11:58:54;100997.50;;;12.26;71.10
3654;BME280;70277;54.302;10.064;2024-02-21T12:01:20;100992.63;;;11.84;71.83
3654;BME280;70277;54.302;10.064;2024-02-21T12:03:48;100983.63;;;12.22;71.17
3654;BME280;70277;54.302;10.064;2024-02-21T12:06:16;100986.63;;;11.82;72.15
3654;BME280;70277;54.302;10.064;2024-02-21T12:08:48;100978.63;;;11.53;73.97
3654;BME280;70277;54.302;10.064;2024-02-21T12:11:21;100969.03;;;11.63;73.78
3654;BME280;70277;54.302;10.064;2024-02-21T12:14:04;100961.50;;;11.31;75.38
3654;BME280;70277;54.302;10.064;2024-02-21T12:16:32;100965.22;;;10.91;76.95
3654;BME280;70277;54.302;10.064;2024-02-21T12:19:03;100958.56;;;10.99;77.45
3654;BME280;70277;54.302;10.064;2024-02-21T12:21:31;100946.56;;;11.45;77.18
3654;BME280;70277;54.302;10.064;2024-02-21T12:23:59;100947.13;;;11.86;75.54
3654;BME280;70277;54.302;10.064;2024-02-21T12:26:26;100951.56;;;11.75;76.12
3654;BME280;70277;54.302;10.064;2024-02-21T12:28:53;100945.47;;;12.07;75.76
3654;BME280;70277;54.302;10.064;2024-02-21T12:31:20;100939.53;;;11.88;75.17
3654;BME280;70277;54.302;10.064;2024-02-21T12:33:47;100929.47;;;11.67;76.57
3654;BME280;70277;54.302;10.064;2024-02-21T12:36:15;100942.41;;;11.59;77.28
3654;BME280;70277;54.302;10.064;2024-02-21T12:38:41;100929.28;;;11.51;77.70
3654;BME280;70277;54.302;10.064;2024-02-21T12:41:08;100933.78;;;11.84;76.91
3654;BME280;70277;54.302;10.064;2024-02-21T12:43:35;100919.97;;;11.25;79.02
3654;BME280;70277;54.302;10.064;2024-02-21T12:46:02;100921.25;;;11.39;78.48
3654;BME280;70277;54.302;10.064;2024-02-21T12:48:28;100914.75;;;11.19;79.82
3654;BME280;70277;54.302;10.064;2024-02-21T12:50:55;100914.06;;;11.11;81.11
3654;BME280;70277;54.302;10.064;2024-02-21T12:53:21;100910.13;;;11.36;79.88
3654;BME280;70277;54.302;10.064;2024-02-21T12:55:58;100909.72;;;11.27;80.00
3654;BME280;70277;54.302;10.064;2024-02-21T12:58:25;100911.06;;;11.47;79.75
3654;BME280;70277;54.302;10.064;2024-02-21T13:00:51;100899.38;;;11.85;79.12
3654;BME280;70277;54.302;10.064;2024-02-21T13:03:18;100901.44;;;12.00;78.83
3654;BME280;70277;54.302;10.064;2024-02-21T13:05:45;100895.84;;;12.39;77.28
3654;BME280;70277;54.302;10.064;2024-02-21T13:08:11;100892.09;;;12.13;76.46